< < Back
Terminal Aerodrome Forecast


Current Version              Previous Versions:   1  2  3  4  5  6  7  8  9  

Terminal Aerodrome Forecast

961
FTUS42 KILM 172300
TAFFLO
TAF
KFLO 172320Z 1800/1824 08008KT P6SM SCT060
     FM180700 04006KT P6SM SCT040
     FM181300 04012KT P6SM SCT035 BKN100
     FM181600 03012G17KT P6SM SCT050 BKN060
     FM181800 04010G16KT P6SM VCSH BKN040
     FM181900 04011G16KT 6SM -RA BKN025
     FM182100 04010KT 5SM -RA BKN015=

Latest METAR

150
SAUS70 KWBC 180300 RRB
MTRFLO
METAR KFLO 180253Z AUTO 06006KT 10SM CLR 12/07 A3039 RMK AO2 SLP289
T01170067 50004


USA.gov is the U.S. government's official web portal to all federal, state and local government web resources and services.